Time;durP1;ratioP1;P1;durP2;ratioP2;P2;SDS_P1;SDS_P2;PMS_P1;PMS_P2;Temp;Humidity;BMP_temperature;BMP_pressure;BME280_temperature;BME280_humidity;BME280_pressure;Samples;Min_cycle;Max_cycle;Signal;HPM_P1;HPM_P2
2023/05/25 00:00:36;;;;;;;;;;;;;;;27.34;34.89;100613.75;5069382;28;1103;-28
2023/05/25 00:03:02;;;;;;;;;;;;;;;27.20;35.15;100614.63;5066777;28;1105;-27
2023/05/25 00:05:28;;;;;;;;;;;;;;;27.16;35.07;100603.34;5075957;28;1082;-32
2023/05/25 00:07:54;;;;;;;;;;;;;;;26.88;35.40;100591.31;5076366;28;1218;-28
2023/05/25 00:10:20;;;;;;;;;;;;;;;26.96;35.23;100586.88;5062713;28;1181;-28
2023/05/25 00:12:45;;;;;;;;;;;;;;;27.16;34.61;100595.25;5065643;28;1918;-29
2023/05/25 00:15:11;;;;;;;;;;;;;;;27.30;34.41;100593.56;5071652;28;1280;-31
2023/05/25 00:17:36;;;;;;;;;;;;;;;26.90;35.12;100591.13;5064814;28;1090;-27
2023/05/25 00:20:06;;;;;;;;;;;;;;;27.12;34.99;100594.81;5073313;28;1051;-32
2023/05/25 00:22:35;;;;;;;;;;;;;;;27.26;35.19;100606.59;5056414;28;1132;-30
2023/05/25 00:25:00;;;;;;;;;;;;;;;27.13;34.76;100601.88;5070256;28;1039;-32
2023/05/25 00:27:26;;;;;;;;;;;;;;;27.14;34.95;100600.03;5065823;28;1061;-30
2023/05/25 00:29:51;;;;;;;;;;;;;;;27.04;35.09;100596.75;5055514;28;1103;-28
2023/05/25 00:32:17;;;;;;;;;;;;;;;26.92;35.64;100590.94;5047574;28;1959;-30
2023/05/25 00:34:46;;;;;;;;;;;;;;;26.82;35.85;100593.91;5041847;28;1126;-32
2023/05/25 00:37:11;;;;;;;;;;;;;;;26.96;35.97;100595.78;5075360;28;1142;-29
2023/05/25 00:39:37;;;;;;;;;;;;;;;27.26;34.62;100603.06;5071993;28;1115;-30
2023/05/25 00:42:02;;;;;;;;;;;;;;;27.59;33.99;100599.94;5065910;28;1076;-30
2023/05/25 00:44:28;;;;;;;;;;;;;;;27.66;33.55;100607.31;5062084;28;1435;-30
2023/05/25 00:46:53;;;;;;;;;;;;;;;27.70;33.88;100609.47;5065475;28;1031;-32
2023/05/25 00:49:19;;;;;;;;;;;;;;;27.89;33.42;100609.88;5071959;28;1154;-31
2023/05/25 00:51:45;;;;;;;;;;;;;;;27.57;33.60;100595.75;5075574;28;1901;-33
2023/05/25 00:54:15;;;;;;;;;;;;;;;27.67;33.38;100603.56;5057684;28;2084;-31
2023/05/25 00:56:52;;;;;;;;;;;;;;;27.55;33.59;100595.09;5057115;28;1301;-28
2023/05/25 00:59:43;;;;;;;;;;;;;;;27.72;33.42;100595.75;5075642;28;1214;-28
2023/05/25 01:02:09;;;;;;;;;;;;;;;27.50;33.68;100593.81;5068328;28;1357;-29
2023/05/25 01:04:39;;;;;;;;;;;;;;;27.69;33.25;100590.72;5047655;28;1170;-30
2023/05/25 01:07:05;;;;;;;;;;;;;;;27.65;32.98;100592.94;5075656;28;1138;-28
2023/05/25 01:09:33;;;;;;;;;;;;;;;27.53;33.27;100592.59;5060786;28;1177;-30
2023/05/25 01:11:59;;;;;;;;;;;;;;;27.40;33.42;100585.16;5048102;28;1906;-31
2023/05/25 01:14:25;;;;;;;;;;;;;;;27.51;33.54;100594.63;5060780;28;1125;-31
2023/05/25 01:16:51;;;;;;;;;;;;;;;27.68;33.04;100594.41;5056876;28;1099;-30
2023/05/25 01:19:17;;;;;;;;;;;;;;;27.57;32.82;100595.75;5051886;28;1088;-31
2023/05/25 01:21:48;;;;;;;;;;;;;;;27.50;32.84;100601.94;5074999;28;1181;-30
2023/05/25 01:24:21;;;;;;;;;;;;;;;27.29;33.44;100594.59;5041475;28;1296;-28
2023/05/25 01:26:54;;;;;;;;;;;;;;;27.42;33.11;100588.53;5059592;28;1214;-29
2023/05/25 01:29:20;;;;;;;;;;;;;;;27.23;33.60;100581.84;5061144;28;1254;-30
2023/05/25 01:31:45;;;;;;;;;;;;;;;27.24;33.38;100587.03;5044429;28;1948;-28
2023/05/25 01:34:11;;;;;;;;;;;;;;;27.22;33.53;100577.47;5060633;28;1019;-31
2023/05/25 01:36:38;;;;;;;;;;;;;;;27.15;33.32;100588.19;5031672;28;1071;-28
2023/05/25 01:39:04;;;;;;;;;;;;;;;27.18;33.72;100586.97;5077730;28;886;-29
2023/05/25 01:41:30;;;;;;;;;;;;;;;27.14;33.52;100586.50;5047836;28;1043;-31
2023/05/25 01:43:56;;;;;;;;;;;;;;;27.23;33.06;100585.38;5078263;28;1139;-25
2023/05/25 01:46:32;;;;;;;;;;;;;;;27.24;33.18;100581.63;5071457;28;1074;-32
2023/05/25 01:49:16;;;;;;;;;;;;;;;26.99;33.91;100583.78;5055098;28;1075;-29
2023/05/25 01:51:48;;;;;;;;;;;;;;;26.94;33.90;100580.81;5052777;28;1959;-29
2023/05/25 01:54:19;;;;;;;;;;;;;;;27.04;33.57;100580.56;5046847;28;1453;-28
2023/05/25 01:56:45;;;;;;;;;;;;;;;27.01;33.40;100581.72;5060735;28;1174;-30
2023/05/25 01:59:12;;;;;;;;;;;;;;;27.00;33.52;100580.91;5043102;28;1565;-28
2023/05/25 02:01:38;;;;;;;;;;;;;;;27.06;33.58;100582.03;5064658;28;1062;-30
2023/05/25 02:04:04;;;;;;;;;;;;;;;27.13;33.27;100584.81;5053828;28;1249;-32
2023/05/25 02:06:30;;;;;;;;;;;;;;;27.10;33.08;100582.50;5052861;28;1146;-31
2023/05/25 02:09:00;;;;;;;;;;;;;;;27.14;33.39;100589.22;5030822;28;1378;-27
2023/05/25 02:11:26;;;;;;;;;;;;;;;27.16;33.04;100592.53;5065133;28;1906;-30
2023/05/25 02:13:53;;;;;;;;;;;;;;;26.59;34.27;100594.81;5057525;28;1209;-32
2023/05/25 02:16:18;;;;;;;;;;;;;;;26.34;35.18;100592.34;5071110;28;1137;-30
2023/05/25 02:18:44;;;;;;;;;;;;;;;26.17;36.14;100593.25;5053202;28;1204;-31
2023/05/25 02:21:10;;;;;;;;;;;;;;;26.19;36.02;100598.50;5070397;28;1142;-29
2023/05/25 02:23:36;;;;;;;;;;;;;;;26.15;36.24;100594.47;5077968;28;1158;-30
2023/05/25 02:26:03;;;;;;;;;;;;;;;26.19;36.46;100598.50;5059561;28;1331;-29
2023/05/25 02:28:29;;;;;;;;;;;;;;;26.34;35.90;100605.84;5070906;28;1114;-30
2023/05/25 02:30:55;;;;;;;;;;;;;;;26.55;35.23;100597.03;5070753;28;1031;-28
2023/05/25 02:33:21;;;;;;;;;;;;;;;26.34;36.05;100605.84;5057703;28;1988;-31
2023/05/25 02:35:46;;;;;;;;;;;;;;;26.36;35.92;100606.50;5053476;28;1114;-31
2023/05/25 02:38:12;;;;;;;;;;;;;;;26.25;36.23;100605.88;5055681;28;1139;-29
2023/05/25 02:40:37;;;;;;;;;;;;;;;26.23;36.32;100615.13;5058337;28;1334;-30
2023/05/25 02:43:03;;;;;;;;;;;;;;;26.29;36.07;100615.25;5046277;28;1174;-27
2023/05/25 02:45:28;;;;;;;;;;;;;;;26.16;36.73;100621.25;5059159;28;1372;-31
2023/05/25 02:47:54;;;;;;;;;;;;;;;26.40;36.07;100615.88;5063943;28;1051;-28
2023/05/25 02:50:21;;;;;;;;;;;;;;;26.64;35.42;100622.09;5058420;28;1248;-31
2023/05/25 02:52:50;;;;;;;;;;;;;;;27.04;35.22;100621.91;5051517;28;1913;-28
2023/05/25 02:55:17;;;;;;;;;;;;;;;27.36;34.44;100621.69;5053380;28;1143;-31
2023/05/25 02:57:43;;;;;;;;;;;;;;;27.32;34.50;100617.69;5051229;28;1278;-29
2023/05/25 03:00:14;;;;;;;;;;;;;;;27.12;34.66;100619.09;5065811;28;1464;-29
2023/05/25 03:02:39;;;;;;;;;;;;;;;27.27;34.30;100623.66;5047420;28;1282;-30
2023/05/25 03:05:06;;;;;;;;;;;;;;;27.19;34.74;100624.59;5058268;28;1158;-34
2023/05/25 03:07:33;;;;;;;;;;;;;;;27.19;34.27;100631.84;5039171;28;1401;-29
2023/05/25 03:09:59;;;;;;;;;;;;;;;27.28;34.59;100635.31;5053510;28;1245;-31
2023/05/25 03:12:25;;;;;;;;;;;;;;;27.13;34.40;100634.28;5059063;28;1978;-30
2023/05/25 03:14:50;;;;;;;;;;;;;;;27.33;33.87;100636.41;5049029;28;1147;-35
2023/05/25 03:17:16;;;;;;;;;;;;;;;27.21;34.04;100648.72;5039103;28;1179;-32
2023/05/25 03:19:42;;;;;;;;;;;;;;;27.25;34.67;100645.44;5052200;28;1347;-28
2023/05/25 03:22:09;;;;;;;;;;;;;;;27.07;34.84;100648.53;5046604;28;1208;-29
2023/05/25 03:24:35;;;;;;;;;;;;;;;27.00;34.70;100636.75;5045307;28;1206;-30
2023/05/25 03:27:02;;;;;;;;;;;;;;;27.31;34.48;100637.63;5058308;28;1326;-28
2023/05/25 03:29:28;;;;;;;;;;;;;;;27.26;34.30;100646.28;5058458;28;1324;-30
2023/05/25 03:31:53;;;;;;;;;;;;;;;27.09;34.56;100642.94;5050809;28;1906;-31
2023/05/25 03:34:23;;;;;;;;;;;;;;;26.94;34.61;100645.59;5040154;28;1195;-30
2023/05/25 03:36:49;;;;;;;;;;;;;;;27.28;34.27;100638.81;5058562;28;1313;-32
2023/05/25 03:39:17;;;;;;;;;;;;;;;26.74;35.47;100640.72;5051039;28;1300;-31
2023/05/25 03:41:43;;;;;;;;;;;;;;;26.42;36.24;100635.44;5076192;28;1229;-31
2023/05/25 03:44:09;;;;;;;;;;;;;;;26.54;36.06;100633.16;5056408;28;1221;-30
2023/05/25 03:46:35;;;;;;;;;;;;;;;26.40;36.13;100638.31;5047420;28;1536;-33
2023/05/25 03:49:01;;;;;;;;;;;;;;;26.41;35.16;100642.66;5076372;28;1189;-31
2023/05/25 03:51:28;;;;;;;;;;;;;;;24.74;37.07;100642.47;5049509;28;1917;-33
2023/05/25 03:53:54;;;;;;;;;;;;;;;23.93;38.28;100638.50;5051430;28;1280;-30
2023/05/25 03:56:20;;;;;;;;;;;;;;;23.72;38.81;100641.66;5065186;28;1134;-32
2023/05/25 03:58:45;;;;;;;;;;;;;;;23.62;39.54;100644.47;5057637;28;2043;-33
2023/05/25 04:01:12;;;;;;;;;;;;;;;23.31;40.13;100648.47;5075732;28;1127;-30
2023/05/25 04:03:37;;;;;;;;;;;;;;;23.66;39.52;100651.19;5074539;28;1079;-34
2023/05/25 04:06:03;;;;;;;;;;;;;;;23.59;39.79;100651.00;5058064;28;1114;-34
2023/05/25 04:08:28;;;;;;;;;;;;;;;23.85;39.68;100649.25;5062450;28;1051;-33
2023/05/25 04:10:55;;;;;;;;;;;;;;;24.09;39.02;100655.66;5049239;28;1115;-31
2023/05/25 04:13:20;;;;;;;;;;;;;;;23.99;39.19;100647.75;5068903;28;1977;-32
2023/05/25 04:15:46;;;;;;;;;;;;;;;24.05;39.24;100655.19;5065773;28;862;-35
2023/05/25 04:18:15;;;;;;;;;;;;;;;24.00;39.75;100652.13;5057945;28;1274;-31
2023/05/25 04:20:41;;;;;;;;;;;;;;;23.94;39.74;100650.13;5057630;28;2144;-30
2023/05/25 04:23:09;;;;;;;;;;;;;;;23.91;40.10;100650.41;5057222;28;1230;-30
2023/05/25 04:25:36;;;;;;;;;;;;;;;24.08;39.76;100654.84;5041213;28;1470;-30
2023/05/25 04:28:03;;;;;;;;;;;;;;;24.26;39.72;100656.56;5052924;28;1177;-31
2023/05/25 04:30:55;;;;;;;;;;;;;;;24.22;39.80;100657.94;5067309;28;1128;-34
2023/05/25 04:33:29;;;;;;;;;;;;;;;24.13;39.85;100667.78;5074474;28;1926;-34
2023/05/25 04:35:59;;;;;;;;;;;;;;;24.12;39.99;100663.41;5057438;28;1300;-30
2023/05/25 04:38:25;;;;;;;;;;;;;;;24.12;39.75;100665.25;5058054;28;1153;-30
2023/05/25 04:40:52;;;;;;;;;;;;;;;24.24;39.39;100671.19;5055109;28;1182;-30
2023/05/25 04:43:19;;;;;;;;;;;;;;;24.14;39.85;100668.63;5060135;28;1131;-30
2023/05/25 04:45:45;;;;;;;;;;;;;;;24.28;39.49;100667.16;5061641;28;1349;-32
2023/05/25 04:48:12;;;;;;;;;;;;;;;24.53;39.04;100676.09;5052939;28;1218;-33
2023/05/25 04:50:39;;;;;;;;;;;;;;;24.64;39.26;100674.91;5055349;28;1220;-33
2023/05/25 04:53:05;;;;;;;;;;;;;;;24.77;38.48;100674.44;5059645;28;1957;-31
2023/05/25 04:55:30;;;;;;;;;;;;;;;24.74;39.13;100682.81;5059289;28;1153;-34
2023/05/25 04:57:57;;;;;;;;;;;;;;;24.68;39.24;100686.19;5050323;28;1198;-32
2023/05/25 05:00:23;;;;;;;;;;;;;;;24.73;38.85;100685.66;5061485;28;1195;-34
2023/05/25 05:02:52;;;;;;;;;;;;;;;24.85;39.19;100689.72;5061001;28;1426;-29
2023/05/25 05:05:19;;;;;;;;;;;;;;;24.72;37.99;100690.22;5045434;28;1377;-32
2023/05/25 05:07:44;;;;;;;;;;;;;;;24.53;35.31;100686.84;5068258;28;1063;-32
2023/05/25 05:10:10;;;;;;;;;;;;;;;24.75;35.43;100686.34;5079137;28;1110;-28
2023/05/25 05:12:38;;;;;;;;;;;;;;;25.39;35.04;100680.22;5061454;28;1910;-32
2023/05/25 05:15:04;;;;;;;;;;;;;;;25.73;34.75;100685.50;5060736;28;1221;-29
2023/05/25 05:17:30;;;;;;;;;;;;;;;25.93;34.83;100688.63;5061098;28;1142;-31
2023/05/25 05:19:56;;;;;;;;;;;;;;;25.98;34.91;100688.94;5060968;28;1287;-31
2023/05/25 05:22:22;;;;;;;;;;;;;;;25.94;34.93;100686.78;5060863;28;1354;-34
2023/05/25 05:24:48;;;;;;;;;;;;;;;26.14;34.63;100685.28;5044807;28;1365;-29
2023/05/25 05:27:21;;;;;;;;;;;;;;;26.06;34.92;100689.91;5035428;28;1407;-31
2023/05/25 05:29:52;;;;;;;;;;;;;;;25.99;35.99;100696.00;5056484;28;1355;-33
2023/05/25 05:32:18;;;;;;;;;;;;;;;26.01;36.58;100695.81;5051898;28;2194;-30
2023/05/25 05:34:43;;;;;;;;;;;;;;;26.30;35.43;100699.69;5060618;28;1217;-28
2023/05/25 05:37:20;;;;;;;;;;;;;;;26.22;35.24;100706.00;5060254;28;1171;-30
2023/05/25 05:39:46;;;;;;;;;;;;;;;26.39;34.93;100704.03;5059664;28;2109;-32
2023/05/25 05:42:11;;;;;;;;;;;;;;;26.19;35.39;100709.03;5060721;28;1294;-30
2023/05/25 05:44:37;;;;;;;;;;;;;;;26.09;35.85;100705.72;5030796;28;1150;-27
2023/05/25 05:47:03;;;;;;;;;;;;;;;26.04;36.20;100708.97;5078187;28;1086;-33
2023/05/25 05:49:29;;;;;;;;;;;;;;;26.29;35.43;100706.13;5030848;28;1246;-32
2023/05/25 05:51:54;;;;;;;;;;;;;;;26.40;35.27;100703.03;5054855;28;1901;-29
2023/05/25 05:54:21;;;;;;;;;;;;;;;26.60;34.81;100712.50;5058687;28;1384;-29
2023/05/25 05:56:46;;;;;;;;;;;;;;;26.63;34.59;100714.81;5065733;28;1155;-31
2023/05/25 05:59:12;;;;;;;;;;;;;;;26.52;34.83;100718.81;5046348;28;1123;-29
2023/05/25 06:01:37;;;;;;;;;;;;;;;26.65;35.06;100719.03;5060244;28;1355;-30
2023/05/25 06:04:04;;;;;;;;;;;;;;;26.71;34.67;100711.25;5041202;28;1138;-35
2023/05/25 06:06:31;;;;;;;;;;;;;;;26.46;35.67;100714.13;5070169;28;1055;-33
2023/05/25 06:08:57;;;;;;;;;;;;;;;26.56;35.32;100722.81;5043806;28;1152;-34
2023/05/25 06:11:22;;;;;;;;;;;;;;;26.80;34.82;100712.84;5078381;28;1902;-34
2023/05/25 06:13:48;;;;;;;;;;;;;;;26.68;35.07;100711.59;5078179;28;1191;-29
2023/05/25 06:16:14;;;;;;;;;;;;;;;26.86;35.24;100716.69;5056194;28;1400;-31
2023/05/25 06:18:39;;;;;;;;;;;;;;;26.81;35.15;100714.50;5039555;28;1091;-29
2023/05/25 06:21:05;;;;;;;;;;;;;;;26.49;35.36;100714.59;5042919;28;1424;-33
2023/05/25 06:23:31;;;;;;;;;;;;;;;26.37;35.73;100711.50;5068064;28;1217;-33
2023/05/25 06:25:56;;;;;;;;;;;;;;;26.46;35.71;100711.44;5071449;28;1146;-30
2023/05/25 06:28:22;;;;;;;;;;;;;;;26.38;35.70;100707.75;5048367;28;1261;-28
2023/05/25 06:30:48;;;;;;;;;;;;;;;26.21;36.08;100707.00;5042937;28;1147;-33
2023/05/25 06:33:13;;;;;;;;;;;;;;;26.61;35.56;100706.91;5059772;28;1918;-33
2023/05/25 06:35:39;;;;;;;;;;;;;;;26.71;35.11;100700.47;5059442;28;1145;-32
2023/05/25 06:38:05;;;;;;;;;;;;;;;26.90;34.93;100709.88;5049900;28;1298;-31
2023/05/25 06:40:30;;;;;;;;;;;;;;;26.94;34.56;100713.91;5052322;28;1245;-31
2023/05/25 06:42:56;;;;;;;;;;;;;;;26.89;34.96;100708.22;5066104;28;1185;-32
2023/05/25 06:45:45;;;;;;;;;;;;;;;26.88;35.45;100715.47;5041730;28;1720;-29
2023/05/25 06:48:12;;;;;;;;;;;;;;;26.94;35.10;100710.38;5035580;28;1526;-33
2023/05/25 06:50:38;;;;;;;;;;;;;;;26.67;35.31;100724.25;5037393;28;1166;-32
2023/05/25 06:53:04;;;;;;;;;;;;;;;26.79;35.57;100716.56;5034807;28;1989;-30
2023/05/25 06:55:29;;;;;;;;;;;;;;;26.82;35.27;100715.34;5037804;28;1155;-32
2023/05/25 06:57:55;;;;;;;;;;;;;;;26.80;35.48;100715.53;5037311;28;1091;-36
2023/05/25 07:00:20;;;;;;;;;;;;;;;26.63;35.14;100712.13;5031960;28;1094;-35
2023/05/25 07:02:46;;;;;;;;;;;;;;;26.65;35.44;100724.44;5028679;28;1165;-39
2023/05/25 07:05:11;;;;;;;;;;;;;;;26.67;35.32;100718.00;5036225;28;1153;-38
2023/05/25 07:07:37;;;;;;;;;;;;;;;27.02;34.50;100718.44;5036950;28;1118;-39
2023/05/25 07:10:03;;;;;;;;;;;;;;;27.01;34.40;100714.00;5021869;28;1051;-35
2023/05/25 07:12:28;;;;;;;;;;;;;;;27.33;33.90;100709.31;5025722;28;1910;-41
2023/05/25 07:14:54;;;;;;;;;;;;;;;27.08;34.90;100703.34;5035159;28;1031;-41
2023/05/25 07:17:20;;;;;;;;;;;;;;;26.96;34.83;100708.34;5028210;28;1419;-40
2023/05/25 07:19:47;;;;;;;;;;;;;;;26.64;35.30;100706.56;5035434;28;1134;-41
2023/05/25 07:22:15;;;;;;;;;;;;;;;26.92;34.80;100715.94;5024898;28;1024;-38
2023/05/25 07:24:41;;;;;;;;;;;;;;;26.96;34.90;100706.44;5023647;28;1155;-36
2023/05/25 07:27:07;;;;;;;;;;;;;;;26.72;35.58;100702.13;5028709;28;1079;-40
2023/05/25 07:29:32;;;;;;;;;;;;;;;26.82;35.14;100709.97;5029305;28;1158;-39
2023/05/25 07:31:58;;;;;;;;;;;;;;;26.93;34.97;100703.28;5027100;28;1981;-40
2023/05/25 07:34:23;;;;;;;;;;;;;;;27.07;34.40;100704.38;5019457;28;1241;-41
2023/05/25 07:36:49;;;;;;;;;;;;;;;26.78;34.89;100704.94;5026883;28;1110;-39
2023/05/25 07:39:14;;;;;;;;;;;;;;;26.65;35.20;100708.25;5036391;28;1228;-40
2023/05/25 07:41:40;;;;;;;;;;;;;;;26.63;35.52;100701.34;5035922;28;865;-41
2023/05/25 07:44:05;;;;;;;;;;;;;;;26.87;34.87;100703.00;5038170;28;1102;-35
2023/05/25 07:46:31;;;;;;;;;;;;;;;26.84;35.14;100703.34;5066162;28;1082;-37
2023/05/25 07:48:58;;;;;;;;;;;;;;;26.70;35.45;100699.59;5073353;28;1166;-37
2023/05/25 07:51:25;;;;;;;;;;;;;;;26.89;34.87;100705.53;5075896;28;1127;-40
2023/05/25 07:53:52;;;;;;;;;;;;;;;26.80;35.26;100696.66;5075621;28;1170;-40
2023/05/25 07:56:18;;;;;;;;;;;;;;;26.78;34.94;100704.09;5065355;28;1162;-35
2023/05/25 07:58:44;;;;;;;;;;;;;;;26.75;35.13;100707.16;5055422;28;1183;-35
2023/05/25 08:01:09;;;;;;;;;;;;;;;26.86;35.13;100705.91;5065373;28;1019;-38
2023/05/25 08:03:35;;;;;;;;;;;;;;;26.91;34.85;100716.97;5055579;28;1096;-39
2023/05/25 08:06:01;;;;;;;;;;;;;;;26.82;35.07;100716.22;5069343;28;891;-40
2023/05/25 08:08:26;;;;;;;;;;;;;;;26.87;35.32;100713.81;5075903;28;1154;-40
2023/05/25 08:10:52;;;;;;;;;;;;;;;26.91;34.79;100722.34;5076184;28;1082;-38
2023/05/25 08:13:17;;;;;;;;;;;;;;;27.02;34.50;100727.38;5073279;28;1973;-40
2023/05/25 08:15:43;;;;;;;;;;;;;;;26.87;35.11;100727.31;5055967;28;1015;-40
2023/05/25 08:18:08;;;;;;;;;;;;;;;26.93;35.12;100725.72;5068479;28;1153;-38
2023/05/25 08:20:35;;;;;;;;;;;;;;;26.97;34.65;100716.25;5063483;28;1039;-38
2023/05/25 08:23:00;;;;;;;;;;;;;;;26.97;35.13;100715.41;5074339;28;1038;-39
2023/05/25 08:25:26;;;;;;;;;;;;;;;26.94;34.85;100710.38;5055983;28;1115;-37
2023/05/25 08:27:51;;;;;;;;;;;;;;;26.92;35.13;100710.56;5055569;28;1145;-36
2023/05/25 08:30:17;;;;;;;;;;;;;;;27.32;34.57;100721.16;5063463;28;849;-34
2023/05/25 08:32:43;;;;;;;;;;;;;;;27.00;34.74;100726.69;5075150;28;1973;-32
2023/05/25 08:35:08;;;;;;;;;;;;;;;26.71;34.91;100725.56;5068000;28;1187;-28
2023/05/25 08:37:34;;;;;;;;;;;;;;;26.67;35.73;100723.41;5055486;28;1229;-27
2023/05/25 08:40:01;;;;;;;;;;;;;;;27.01;34.54;100714.00;5038045;28;1123;-31
2023/05/25 08:42:27;;;;;;;;;;;;;;;26.64;35.21;100716.53;5069557;28;1482;-31
2023/05/25 08:44:52;;;;;;;;;;;;;;;27.44;33.71;100729.66;5075444;28;1216;-31
2023/05/25 08:47:19;;;;;;;;;;;;;;;27.06;35.81;100727.00;5062083;28;1118;-28
2023/05/25 08:49:44;;;;;;;;;;;;;;;27.06;35.19;100725.13;5075354;28;1086;-34
2023/05/25 08:52:12;;;;;;;;;;;;;;;27.07;34.73;100723.25;5061617;28;1953;-29
2023/05/25 08:54:37;;;;;;;;;;;;;;;26.87;35.25;100716.50;5067516;28;906;-31
2023/05/25 08:57:22;;;;;;;;;;;;;;;26.64;35.00;100716.53;5055870;28;1087;-33
2023/05/25 09:00:06;;;;;;;;;;;;;;;26.86;34.88;100712.09;5066643;28;1174;-29
2023/05/25 09:02:37;;;;;;;;;;;;;;;27.07;35.14;100715.16;5068822;28;1094;-28
2023/05/25 09:05:03;;;;;;;;;;;;;;;26.59;37.03;100711.66;5039160;28;1222;-28
2023/05/25 09:07:29;;;;;;;;;;;;;;;26.81;36.99;100711.00;5075811;28;1154;-31
2023/05/25 09:09:55;;;;;;;;;;;;;;;26.51;37.18;100714.41;5057307;28;1018;-28
2023/05/25 09:12:23;;;;;;;;;;;;;;;26.37;36.68;100722.28;5054710;28;1894;-29
2023/05/25 09:14:49;;;;;;;;;;;;;;;26.17;36.61;100721.84;5069224;28;1106;-29
2023/05/25 09:17:15;;;;;;;;;;;;;;;26.19;36.89;100721.69;5074852;28;1090;-28
2023/05/25 09:19:40;;;;;;;;;;;;;;;26.20;36.74;100718.81;5060815;28;1089;-28
2023/05/25 09:22:06;;;;;;;;;;;;;;;26.25;36.57;100719.13;5055333;28;1202;-31
2023/05/25 09:24:31;;;;;;;;;;;;;;;26.32;36.30;100724.63;5068088;28;1054;-28
2023/05/25 09:26:57;;;;;;;;;;;;;;;26.27;36.32;100718.94;5063098;28;1047;-31
2023/05/25 09:29:23;;;;;;;;;;;;;;;26.23;36.54;100715.75;5065218;28;1154;-30
2023/05/25 09:31:49;;;;;;;;;;;;;;;26.14;37.34;100714.13;5078782;28;1984;-31
2023/05/25 09:34:14;;;;;;;;;;;;;;;26.04;38.47;100715.16;5077463;28;1090;-29
2023/05/25 09:36:40;;;;;;;;;;;;;;;26.32;38.35;100723.78;5058927;28;1007;-29
2023/05/25 09:39:09;;;;;;;;;;;;;;;25.99;40.23;100720.25;5071843;28;1214;-31
2023/05/25 09:41:35;;;;;;;;;;;;;;;25.81;41.16;100728.59;5066523;28;1054;-34
2023/05/25 09:44:00;;;;;;;;;;;;;;;25.79;41.60;100731.44;5064688;28;1022;-36
2023/05/25 09:46:27;;;;;;;;;;;;;;;25.81;41.87;100725.88;5078322;28;1193;-30
2023/05/25 09:48:52;;;;;;;;;;;;;;;25.97;42.70;100722.31;5070635;28;1130;-31
2023/05/25 09:51:18;;;;;;;;;;;;;;;26.11;41.78;100728.78;5063862;28;1024;-30
2023/05/25 09:53:43;;;;;;;;;;;;;;;26.15;41.54;100727.44;5077491;28;1902;-30
2023/05/25 09:56:10;;;;;;;;;;;;;;;26.29;41.38;100725.81;5046810;28;1124;-33
2023/05/25 09:58:36;;;;;;;;;;;;;;;26.20;40.63;100717.97;5066093;28;1134;-32
2023/05/25 10:01:03;;;;;;;;;;;;;;;26.17;41.43;100721.84;5063796;28;1083;-31
2023/05/25 10:03:29;;;;;;;;;;;;;;;26.31;39.96;100722.13;5059358;28;1079;-33
2023/05/25 10:05:54;;;;;;;;;;;;;;;26.26;40.63;100719.94;5065101;28;1226;-32
2023/05/25 10:08:24;;;;;;;;;;;;;;;26.26;39.88;100723.47;5045997;28;1241;-33
2023/05/25 10:10:49;;;;;;;;;;;;;;;26.25;41.10;100729.06;5048093;28;1098;-34
2023/05/25 10:13:15;;;;;;;;;;;;;;;26.36;40.63;100727.84;5064417;28;1973;-30
2023/05/25 10:15:40;;;;;;;;;;;;;;;26.38;40.98;100733.88;5049271;28;1150;-32
2023/05/25 10:18:06;;;;;;;;;;;;;;;26.31;41.53;100728.34;5053092;28;1083;-32
2023/05/25 10:20:31;;;;;;;;;;;;;;;26.44;41.11;100725.09;5068180;28;1051;-31
2023/05/25 10:23:00;;;;;;;;;;;;;;;26.57;39.87;100732.59;5046830;28;1175;-33
2023/05/25 10:25:26;;;;;;;;;;;;;;;26.69;38.18;100724.06;5050524;28;1099;-33
2023/05/25 10:27:52;;;;;;;;;;;;;;;26.85;37.27;100728.50;5060017;28;1055;-29
2023/05/25 10:30:17;;;;;;;;;;;;;;;26.84;37.16;100733.03;5069169;28;1118;-33
2023/05/25 10:32:43;;;;;;;;;;;;;;;26.86;37.16;100724.78;5070773;28;1906;-35
2023/05/25 10:35:09;;;;;;;;;;;;;;;26.75;37.95;100724.19;5065837;28;1139;-32
2023/05/25 10:37:34;;;;;;;;;;;;;;;27.13;36.90;100722.53;5059341;28;1028;-29
2023/05/25 10:40:00;;;;;;;;;;;;;;;27.28;36.46;100724.44;5077104;28;1015;-29
2023/05/25 10:42:26;;;;;;;;;;;;;;;26.98;36.78;100725.16;5063330;28;1130;-29
2023/05/25 10:44:52;;;;;;;;;;;;;;;27.13;36.69;100728.78;5059769;28;1059;-29
2023/05/25 10:47:17;;;;;;;;;;;;;;;27.07;36.81;100721.41;5057310;28;1293;-32
2023/05/25 10:49:52;;;;;;;;;;;;;;;26.89;37.65;100719.84;5057433;28;1317;-29
2023/05/25 10:52:21;;;;;;;;;;;;;;;26.92;37.38;100717.81;5057109;28;1898;-29
2023/05/25 10:54:47;;;;;;;;;;;;;;;27.41;36.41;100715.69;5060487;28;1226;-32
2023/05/25 10:57:15;;;;;;;;;;;;;;;27.01;37.28;100717.56;5048604;28;1167;-31
2023/05/25 10:59:44;;;;;;;;;;;;;;;27.04;36.88;100713.69;5070794;28;1238;-29
2023/05/25 11:02:10;;;;;;;;;;;;;;;27.09;37.01;100710.44;5069150;28;1038;-32
2023/05/25 11:04:38;;;;;;;;;;;;;;;26.94;37.57;100711.22;5066885;28;1094;-30
2023/05/25 11:07:04;;;;;;;;;;;;;;;26.89;37.13;100705.53;5056775;28;872;-30
2023/05/25 11:09:30;;;;;;;;;;;;;;;26.99;37.22;100699.88;5070297;28;1126;-30
2023/05/25 11:11:57;;;;;;;;;;;;;;;27.19;36.78;100702.06;5064757;28;1989;-31
2023/05/25 11:14:28;;;;;;;;;;;;;;;27.35;36.45;100706.44;5076812;28;1058;-33
2023/05/25 11:17:06;;;;;;;;;;;;;;;27.33;36.87;100701.22;5073629;28;1146;-30
2023/05/25 11:19:41;;;;;;;;;;;;;;;27.28;36.57;100706.34;5070649;28;969;-31
2023/05/25 11:22:36;;;;;;;;;;;;;;;27.36;36.50;100694.63;5076483;28;1054;-27
2023/05/25 11:25:02;;;;;;;;;;;;;;;27.17;36.90;100699.53;5062452;28;1726;-32
2023/05/25 11:27:28;;;;;;;;;;;;;;;27.11;36.90;100697.59;5070156;28;1123;-29
2023/05/25 11:29:56;;;;;;;;;;;;;;;27.13;36.71;100696.38;5056872;28;1043;-29
2023/05/25 11:32:22;;;;;;;;;;;;;;;27.21;36.84;100690.03;5056265;28;1985;-28
2023/05/25 11:34:47;;;;;;;;;;;;;;;27.45;35.94;100684.53;5060987;28;1119;-28
2023/05/25 11:37:16;;;;;;;;;;;;;;;27.39;35.93;100684.25;5062385;28;1163;-27
2023/05/25 11:39:44;;;;;;;;;;;;;;;27.31;36.33;100673.56;5060277;28;1091;-28
2023/05/25 11:42:10;;;;;;;;;;;;;;;27.32;36.02;100669.00;5039524;28;1241;-30
2023/05/25 11:44:35;;;;;;;;;;;;;;;27.54;35.97;100678.03;5069253;28;1019;-28
2023/05/25 11:47:07;;;;;;;;;;;;;;;27.35;35.87;100672.19;5056839;28;1201;-29
2023/05/25 11:49:33;;;;;;;;;;;;;;;27.51;35.65;100667.59;5068969;28;1159;-31
2023/05/25 11:51:58;;;;;;;;;;;;;;;27.33;36.55;100665.25;5057779;28;1906;-29
2023/05/25 11:54:25;;;;;;;;;;;;;;;27.15;36.33;100661.09;5060966;28;1123;-29
2023/05/25 11:56:50;;;;;;;;;;;;;;;27.30;36.29;100657.53;5075518;28;1040;-33
2023/05/25 11:59:16;;;;;;;;;;;;;;;27.09;36.74;100654.53;5060270;28;1302;-27
2023/05/25 12:01:42;;;;;;;;;;;;;;;27.21;36.51;100652.22;5075723;28;1031;-29
2023/05/25 12:04:08;;;;;;;;;;;;;;;27.46;35.89;100651.13;5059070;28;1501;-29
2023/05/25 12:06:35;;;;;;;;;;;;;;;27.28;36.60;100640.72;5056384;28;1039;-32
2023/05/25 12:09:01;;;;;;;;;;;;;;;27.14;36.90;100635.13;5069417;28;1087;-30
2023/05/25 12:11:29;;;;;;;;;;;;;;;27.27;36.56;100639.88;5056378;28;1051;-29
2023/05/25 12:13:55;;;;;;;;;;;;;;;27.33;36.32;100643.66;5062359;28;1906;-27
2023/05/25 12:16:21;;;;;;;;;;;;;;;27.54;35.45;100644.78;5058269;28;1113;-29
2023/05/25 12:18:46;;;;;;;;;;;;;;;27.41;35.97;100637.34;5056414;28;1089;-28
2023/05/25 12:21:12;;;;;;;;;;;;;;;27.48;35.78;100636.38;5069149;28;1094;-30
2023/05/25 12:23:37;;;;;;;;;;;;;;;27.06;36.82;100640.59;5062671;28;1135;-28
2023/05/25 12:26:12;;;;;;;;;;;;;;;27.13;36.33;100636.97;5075780;28;1055;-31
2023/05/25 12:28:38;;;;;;;;;;;;;;;27.36;36.42;100643.31;5075709;28;1106;-29
2023/05/25 12:31:21;;;;;;;;;;;;;;;27.24;37.05;100653.75;5075039;28;998;-29
2023/05/25 12:34:07;;;;;;;;;;;;;;;27.07;36.64;100653.06;5055862;28;1977;-34
2023/05/25 12:36:39;;;;;;;;;;;;;;;27.22;36.17;100664.72;5062106;28;1268;-30
2023/05/25 12:39:05;;;;;;;;;;;;;;;27.42;35.45;100668.72;5074319;28;1202;-27
2023/05/25 12:41:31;;;;;;;;;;;;;;;27.17;36.09;100680.66;5061168;28;1127;-28
2023/05/25 12:43:57;;;;;;;;;;;;;;;27.10;36.25;100682.41;5075490;28;856;-27
2023/05/25 12:46:26;;;;;;;;;;;;;;;27.01;36.48;100690.56;5070682;28;1079;-27